EW8909 Weather Reports


Display with metric or nautical units.
time (UTC)temp
F
wind
direction
speed
MPH
gust
MPH
rain 1hr
in
rain 24hr
in
rain mn
in
humidity
%
barometer
mb
20191211203206 46 25 0.0 3.0 0.01 0.31 0.02 1 1016.5
20191211201611 45 59 4.0 7.0 0.02 0.31 0.02 1 1017.1
20191211200122 45 26 3.0 5.0 0.02 0.31 0.02 1 1017.5
20191211194539 45 59 3.0 6.0 0.01 0.30 0.01 1 1017.6
20191211193108 45 92 1.0 3.0 0.01 0.30 0.01 1 1018.4
20191211191512 44 92 0.0 0.0 0.00 0.28 0.00 1 1018.3
20191211190033 44 92 0.0 0.0 0.00 0.28 0.00 1 1018.0
20191211184651 44 92 0.0 2.0 0.00 0.28 0.00 1 1018.1
20191211183248 44 95 0.0 0.0 0.00 0.28 0.00 1 1017.8
20191211181710 44 95 0.0 2.0 0.00 0.28 0.00 1 1017.8
20191211180144 44 76 1.0 3.0 0.00 0.28 0.00 1 1017.4
20191211174747 44 63 0.0 0.0 0.00 0.28 0.00 1 1017.8
20191211173055 43 63 0.0 0.0 0.00 0.28 0.00 1 1017.8
20191211171547 43 63 0.0 0.0 0.00 0.28 0.00 1 1017.7
20191211170135 43 63 0.0 1.0 0.00 0.28 0.00 1 1017.7
20191211164620 42 63 0.0 1.0 0.00 0.28 0.00 1 1017.7
20191211163043 42 63 0.0 3.0 0.00 0.28 0.00 1 1017.7
20191211161621 42 62 0.0 0.0 0.00 0.28 0.00 1 1017.9
20191211160100 42 62 0.0 0.0 0.00 0.28 0.00 1 1018.2
20191211154525 42 62 0.0 0.0 0.00 0.28 0.00 1 1018.2
20191211153012 42 62 0.0 1.0 0.00 0.28 0.00 1 1018.3
20191211151641 42 62 0.0 0.0 0.00 0.28 0.00 1 1018.3
20191211150235 42 62 0.0 0.0 0.00 0.28 0.00 1 1018.3
20191211144754 42 62 0.0 0.0 0.00 0.28 0.00 1 1018.2
20191211143317 42 62 0.0 0.0 0.00 0.28 0.00 1 1018.1
20191211141700 43 62 0.0 2.0 0.00 0.28 0.00 1 1018.0
20191211140155 43 62 1.0 2.0 0.00 0.28 0.00 1 1018.0
20191211134627 43 62 0.0 1.0 0.00 0.28 0.00 1 1018.1
20191211133130 43 62 0.0 1.0 0.00 0.28 0.00 1 1017.9
20191211131647 43 62 0.0 1.0 0.00 0.28 0.00 1 1018.1
20191211130143 43 62 0.0 2.0 0.00 0.28 0.00 1 1018.2
20191211124536 43 74 1.0 3.0 0.00 0.28 0.00 1 1018.1
20191211123106 43 52 1.0 3.0 0.00 0.28 0.00 1 1018.1
20191211121530 43 53 1.0 2.0 0.00 0.28 0.00 1 1018.3
20191211120025 43 53 0.0 1.0 0.00 0.28 0.00 1 1018.6
20191211114523 43 53 0.0 3.0 0.00 0.28 0.00 1 1018.2
20191211113013 43 46 1.0 3.0 0.00 0.28 0.00 1 1017.9
20191211111509 43 45 0.0 0.0 0.00 0.28 0.00 1 1018.4
20191211110212 43 45 0.0 0.0 0.00 0.28 0.00 1 1018.5
20191211104806 43 45 0.0 0.0 0.00 0.28 0.00 1 1018.5
20191211103208 43 45 0.0 0.0 0.00 0.28 0.00 1 1018.4
20191211101814 43 45 0.0 0.0 0.00 0.28 0.00 1 1018.1
20191211100240 43 45 0.0 0.0 0.00 0.28 0.00 1 1018.1
20191211094655 43 45 0.0 0.0 0.00 0.28 0.00 1 1017.8
20191211093109 43 45 0.0 1.0 0.00 0.28 0.00 1 1017.9
20191211091552 43 44 0.0 3.0 0.00 0.28 0.00 1 1017.9
20191211090147 43 315 0.0 0.0 0.00 0.28 0.00 1 1018.2
20191211084719 43 315 0.0 0.0 0.00 0.28 0.00 1 1018.3
20191211083023 43 315 0.0 0.0 0.00 0.28 0.00 1 1018.5
20191211081530 43 315 0.0 0.0 0.00 0.28 0.00 1 1018.6
20191211080019 43 315 0.0 0.0 0.00 0.28 0.00 1 1018.7
20191211074507 42 315 0.0 0.0 0.00 0.28 0.28 1 1018.8
20191211073001 42 315 0.0 0.0 0.00 0.28 0.28 1 1018.7
20191211071839 42 315 0.0 1.0 0.00 0.28 0.28 1 1018.9
20191211070355 42 315 0.0 0.0 0.00 0.28 0.28 1 1019.0
20191211064942 42 315 0.0 1.0 0.00 0.28 0.28 1 1018.9
20191211063249 42 68 2.0 3.0 0.00 0.28 0.28 1 1018.6
20191211061616 43 65 0.0 0.0 0.01 0.28 0.28 1 1019.2
20191211060142 43 65 0.0 0.0 0.01 0.28 0.28 1 1019.4
20191211051545 43 65 0.0 0.0 0.01 0.28 0.28 1 1019.3
20191211050216 43 65 0.0 0.0 0.01 0.28 0.28 1 1019.3
20191211044609 43 65 0.0 0.0 0.01 0.27 0.27 1 1019.2
20191211043042 43 65 0.0 0.0 0.02 0.27 0.27 1 1019.1
20191211041549 43 65 0.0 0.0 0.04 0.27 0.27 1 1019.2
20191211040007 43 65 0.0 0.0 0.04 0.27 0.27 1 1019.2
20191211034730 43 65 0.0 0.0 0.04 0.26 0.26 1 1019.3
20191211033425 43 65 0.0 0.0 0.04 0.25 0.25 1 1019.3
20191211031737 43 65 0.0 0.0 0.02 0.23 0.23 1 1019.3
20191211030525 42 65 0.0 0.0 0.03 0.23 0.23 1 1019.4
20191211024712 43 65 0.0 0.0 0.03 0.22 0.22 1 1019.3
20191211023416 43 65 0.0 0.0 0.02 0.21 0.21 1 1019.4
20191211021826 43 65 0.0 0.0 0.02 0.21 0.21 1 1019.5
20191211020130 43 65 0.0 0.0 0.02 0.20 0.20 1 1019.3
20191211014757 42 65 0.0 0.0 0.01 0.19 0.19 1 1019.4
20191211013155 43 65 0.0 0.0 0.02 0.19 0.19 1 1019.6
20191211011721 43 65 0.0 0.0 0.02 0.19 0.19 1 1019.6
20191211010040 43 65 0.0 0.0 0.01 0.18 0.18 1 1019.8
20191211004651 43 65 0.0 0.0 0.01 0.18 0.18 1 1019.8
20191211003018 43 65 0.0 0.0 0.01 0.17 0.17 1 1019.9
20191211001535 43 65 0.0 0.0 0.02 0.17 0.17 1 1019.9
20191211000008 43 65 0.0 0.0 0.03 0.17 0.17 1 1020.1
20191210234913 42 65 0.0 0.0 0.04 0.17 0.17 1 1020.3
20191210233204 42 65 0.0 0.0 0.05 0.16 0.16 1 1020.6
20191210231753 42 65 1.0 2.0 0.06 0.15 0.15 1 1020.7
20191210230219 42 59 1.0 3.0 0.07 0.14 0.14 1 1020.8
20191210224723 42 194 0.0 1.0 0.07 0.13 0.13 1 1020.9
20191210223218 43 194 0.0 0.0 0.06 0.11 0.11 1 1020.9
20191210221606 42 194 0.0 0.0 0.06 0.09 0.09 1 1020.8
20191210220200 42 194 0.0 1.0 0.05 0.07 0.07 1 1020.9
20191210214610 42 194 0.0 0.0 0.05 0.06 0.06 1 1020.7
20191210213047 42 194 0.0 1.0 0.03 0.04 0.04 1 1020.7
20191210211641 42 285 0.0 1.0 0.03 0.03 0.03 1 1020.7
20191210210028 42 285 0.0 0.0 0.02 0.02 0.02 1 1020.6
20191210204540 42 285 0.0 1.0 0.01 0.01 0.01 1 1020.9